Time;durP1;ratioP1;P1;durP2;ratioP2;P2;SDS_P1;SDS_P2;PMS_P1;PMS_P2;Temp;Humidity;BMP_temperature;BMP_pressure;BME280_temperature;BME280_humidity;BME280_pressure;Samples;Min_cycle;Max_cycle;Signal;HPM_P1;HPM_P2
2023/09/14 00:00:08;;;;;;;;;;;;;;;22.68;42.46;99692.03;5093876;28;20301;-76
2023/09/14 00:02:33;;;;;;;;;;;;;;;22.65;41.41;99686.34;5093539;28;19995;-76
2023/09/14 00:04:59;;;;;;;;;;;;;;;22.60;42.49;99687.13;5093626;28;20004;-76
2023/09/14 00:07:24;;;;;;;;;;;;;;;22.54;42.40;99680.06;5093459;28;20401;-77
2023/09/14 00:09:49;;;;;;;;;;;;;;;22.50;43.07;99682.44;5093369;28;19955;-76
2023/09/14 00:12:14;;;;;;;;;;;;;;;22.54;41.70;99690.00;5093374;28;20293;-75
2023/09/14 00:14:40;;;;;;;;;;;;;;;22.52;42.65;99690.25;5093441;28;19908;-76
2023/09/14 00:17:06;;;;;;;;;;;;;;;22.48;42.85;99691.84;5093409;28;19912;-76
2023/09/14 00:19:31;;;;;;;;;;;;;;;22.48;42.55;99686.44;5093169;28;19915;-76
2023/09/14 00:21:56;;;;;;;;;;;;;;;22.46;42.68;99692.09;5093257;28;19916;-75
2023/09/14 00:24:21;;;;;;;;;;;;;;;22.42;42.37;99684.78;5093210;28;19916;-76
2023/09/14 00:26:47;;;;;;;;;;;;;;;22.37;43.37;99682.84;5092977;28;19916;-76
2023/09/14 00:29:12;;;;;;;;;;;;;;;22.36;42.50;99688.47;5093259;28;20007;-76
2023/09/14 00:31:38;;;;;;;;;;;;;;;22.36;43.20;99689.28;5092933;28;20354;-76
2023/09/14 00:34:04;;;;;;;;;;;;;;;22.33;43.44;99683.59;5092782;28;19943;-76
2023/09/14 00:36:30;;;;;;;;;;;;;;;22.34;43.70;99693.28;5092779;28;20408;-75
2023/09/14 00:38:55;;;;;;;;;;;;;;;22.35;43.72;99684.16;5092691;28;19912;-76
2023/09/14 00:41:20;;;;;;;;;;;;;;;22.34;43.36;99683.34;5074606;28;20312;-76
2023/09/14 00:43:45;;;;;;;;;;;;;;;22.35;43.48;99674.19;5092959;28;19950;-77
2023/09/14 00:46:11;;;;;;;;;;;;;;;22.31;42.94;99678.47;5094637;28;20332;-76
2023/09/14 00:48:37;;;;;;;;;;;;;;;22.28;43.19;99680.81;5095029;28;19916;-76
2023/09/14 00:51:04;;;;;;;;;;;;;;;22.29;43.80;99668.97;5092495;28;19999;-76
2023/09/14 00:53:29;;;;;;;;;;;;;;;22.27;42.66;99663.03;5074657;28;19950;-75
2023/09/14 00:55:56;;;;;;;;;;;;;;;22.17;43.63;99667.25;5092639;28;19912;-75
2023/09/14 00:58:21;;;;;;;;;;;;;;;22.21;41.78;99664.84;5092431;28;19925;-75
2023/09/14 01:00:47;;;;;;;;;;;;;;;22.20;43.63;99665.94;5092535;28;19912;-75
2023/09/14 01:03:13;;;;;;;;;;;;;;;22.19;43.39;99670.50;5092247;28;19955;-76
2023/09/14 01:05:40;;;;;;;;;;;;;;;22.08;44.84;99674.13;5092515;28;19912;-75
2023/09/14 01:08:05;;;;;;;;;;;;;;;22.07;44.54;99675.19;5094794;28;19916;-76
2023/09/14 01:10:31;;;;;;;;;;;;;;;22.09;44.24;99673.06;5093162;28;19916;-77
2023/09/14 01:12:57;;;;;;;;;;;;;;;22.10;45.24;99669.31;5092580;28;19916;-77
2023/09/14 01:15:32;;;;;;;;;;;;;;;22.11;45.28;99675.50;5092216;28;19912;-77
2023/09/14 01:18:04;;;;;;;;;;;;;;;22.05;44.83;99674.63;5092357;28;19943;-77
2023/09/14 01:20:48;;;;;;;;;;;;;;;22.03;45.15;99678.63;5092201;28;19920;-77
2023/09/14 01:23:16;;;;;;;;;;;;;;;21.99;43.36;99683.66;5092063;28;19965;-76
2023/09/14 01:25:42;;;;;;;;;;;;;;;21.85;42.50;99685.88;5092309;28;19912;-77
2023/09/14 01:28:08;;;;;;;;;;;;;;;21.70;42.69;99680.31;5092033;28;19916;-76
2023/09/14 01:30:33;;;;;;;;;;;;;;;21.51;43.06;99687.78;5091985;28;19923;-77
2023/09/14 01:32:58;;;;;;;;;;;;;;;21.35;43.36;99690.50;5091961;28;19926;-76
2023/09/14 01:35:25;;;;;;;;;;;;;;;21.24;43.02;99692.19;5073944;28;20408;-75
2023/09/14 01:37:52;;;;;;;;;;;;;;;21.19;43.14;99697.47;5091988;28;19989;-76
2023/09/14 01:40:17;;;;;;;;;;;;;;;21.10;43.22;99696.22;5073988;28;20387;-75
2023/09/14 01:42:43;;;;;;;;;;;;;;;21.02;44.10;99693.94;5073914;28;19912;-76
2023/09/14 01:45:08;;;;;;;;;;;;;;;21.05;43.79;99698.81;5091655;28;20401;-77
2023/09/14 01:47:34;;;;;;;;;;;;;;;21.05;43.80;99696.16;5091756;28;19918;-76
2023/09/14 01:49:59;;;;;;;;;;;;;;;21.07;43.91;99696.72;5092008;28;19916;-76
2023/09/14 01:52:24;;;;;;;;;;;;;;;21.06;44.06;99687.84;5091802;28;19956;-75
2023/09/14 01:54:50;;;;;;;;;;;;;;;21.06;44.43;99684.34;5073486;28;19908;-77
2023/09/14 01:57:15;;;;;;;;;;;;;;;21.01;43.91;99682.41;5091761;28;19935;-76
2023/09/14 01:59:40;;;;;;;;;;;;;;;21.01;44.48;99684.25;5091465;28;19912;-76
2023/09/14 02:02:05;;;;;;;;;;;;;;;20.98;44.46;99680.19;5091432;28;19924;-77
2023/09/14 02:04:31;;;;;;;;;;;;;;;20.99;45.14;99691.75;5091414;28;19915;-78
2023/09/14 02:06:56;;;;;;;;;;;;;;;20.90;46.60;99686.78;5073295;28;20320;-77
2023/09/14 02:09:21;;;;;;;;;;;;;;;20.86;47.17;99679.44;5091628;28;19938;-76
2023/09/14 02:11:47;;;;;;;;;;;;;;;20.89;46.82;99676.28;5091556;28;20332;-76
2023/09/14 02:14:12;;;;;;;;;;;;;;;20.90;45.97;99675.22;5091795;28;20305;-77
2023/09/14 02:16:37;;;;;;;;;;;;;;;20.94;46.88;99673.69;5091629;28;19923;-76
2023/09/14 02:19:02;;;;;;;;;;;;;;;20.95;45.71;99678.00;5077352;28;19912;-77
2023/09/14 02:21:28;;;;;;;;;;;;;;;20.97;45.94;99681.25;5095500;28;19918;-76
2023/09/14 02:23:53;;;;;;;;;;;;;;;21.02;47.12;99678.66;5077176;28;20043;-75
2023/09/14 02:26:19;;;;;;;;;;;;;;;21.03;46.51;99674.09;5095294;28;19959;-77
2023/09/14 02:28:44;;;;;;;;;;;;;;;20.99;47.29;99678.31;5095317;28;19912;-77
2023/09/14 02:31:10;;;;;;;;;;;;;;;20.99;45.73;99689.06;5095297;28;19916;-76
2023/09/14 02:33:37;;;;;;;;;;;;;;;21.03;45.93;99685.66;5095216;28;19942;-77
2023/09/14 02:36:02;;;;;;;;;;;;;;;21.05;47.27;99683.53;5095145;28;20316;-76
2023/09/14 02:38:27;;;;;;;;;;;;;;;21.09;45.27;99679.31;5095245;28;19912;-77
2023/09/14 02:40:53;;;;;;;;;;;;;;;21.13;47.01;99687.69;5095177;28;19912;-76
2023/09/14 02:43:18;;;;;;;;;;;;;;;21.15;44.98;99696.31;5095070;28;19919;-76
2023/09/14 02:45:43;;;;;;;;;;;;;;;21.09;44.86;99692.72;5076982;28;20061;-76
2023/09/14 02:48:08;;;;;;;;;;;;;;;20.89;44.69;99689.69;5095022;28;19916;-76
2023/09/14 02:50:34;;;;;;;;;;;;;;;20.77;45.03;99691.59;5094888;28;19916;-76
2023/09/14 02:52:59;;;;;;;;;;;;;;;20.65;45.26;99699.69;5095063;28;19912;-75
2023/09/14 02:55:24;;;;;;;;;;;;;;;20.48;45.36;99705.03;5094870;28;19912;-76
2023/09/14 02:57:50;;;;;;;;;;;;;;;20.28;45.66;99704.59;5094940;28;19912;-76
2023/09/14 03:00:17;;;;;;;;;;;;;;;20.16;46.45;99704.63;5094839;28;19916;-75
2023/09/14 03:02:43;;;;;;;;;;;;;;;20.10;45.64;99708.25;5094562;28;19927;-76
2023/09/14 03:05:09;;;;;;;;;;;;;;;19.95;46.21;99706.03;5094734;28;19918;-76
2023/09/14 03:07:34;;;;;;;;;;;;;;;19.97;46.29;99703.09;5094762;28;19911;-76
2023/09/14 03:10:00;;;;;;;;;;;;;;;19.90;46.45;99702.41;5076350;28;19969;-76
2023/09/14 03:12:25;;;;;;;;;;;;;;;19.81;47.06;99710.00;5094601;28;20384;-75
2023/09/14 03:14:50;;;;;;;;;;;;;;;19.79;45.61;99703.25;5094588;28;19961;-76
2023/09/14 03:17:15;;;;;;;;;;;;;;;19.73;46.72;99701.50;5094564;28;19912;-75
2023/09/14 03:19:44;;;;;;;;;;;;;;;19.71;46.40;99707.09;5076226;28;19912;-76
2023/09/14 03:22:10;;;;;;;;;;;;;;;19.73;45.75;99712.22;5094233;28;19904;-75
2023/09/14 03:24:35;;;;;;;;;;;;;;;19.71;46.52;99703.59;5094258;28;19919;-75
2023/09/14 03:27:00;;;;;;;;;;;;;;;19.64;47.60;99701.84;5094240;28;19995;-75
2023/09/14 03:29:27;;;;;;;;;;;;;;;19.62;45.89;99711.97;5092937;28;19995;-75
2023/09/14 03:31:52;;;;;;;;;;;;;;;19.55;47.26;99708.59;5094139;28;19916;-75
2023/09/14 03:34:18;;;;;;;;;;;;;;;19.52;47.45;99714.41;5094163;28;19965;-75
2023/09/14 03:36:44;;;;;;;;;;;;;;;19.52;47.24;99717.09;5094482;28;20377;-76
2023/09/14 03:39:12;;;;;;;;;;;;;;;19.52;47.42;99709.06;5077179;28;19969;-75
2023/09/14 03:41:37;;;;;;;;;;;;;;;19.47;47.37;99714.28;5094159;28;20397;-75
2023/09/14 03:44:03;;;;;;;;;;;;;;;19.42;47.39;99707.97;5075556;28;19912;-76
2023/09/14 03:46:29;;;;;;;;;;;;;;;19.36;48.21;99701.69;5094121;28;20354;-77
2023/09/14 03:48:54;;;;;;;;;;;;;;;19.36;47.10;99704.38;5075682;28;20375;-77
2023/09/14 03:51:19;;;;;;;;;;;;;;;19.31;47.46;99713.06;5093800;28;19951;-77
2023/09/14 03:53:45;;;;;;;;;;;;;;;19.29;47.25;99717.00;5093813;28;19912;-76
2023/09/14 03:56:10;;;;;;;;;;;;;;;19.28;47.69;99716.19;5093693;28;19951;-76
2023/09/14 03:58:36;;;;;;;;;;;;;;;19.27;47.58;99713.75;5093823;28;20381;-76
2023/09/14 04:01:03;;;;;;;;;;;;;;;19.29;47.92;99711.66;5095171;28;20305;-77
2023/09/14 04:03:28;;;;;;;;;;;;;;;19.28;46.99;99710.03;5093810;28;19916;-77
2023/09/14 04:05:53;;;;;;;;;;;;;;;19.26;47.82;99706.75;5093690;28;20396;-76
2023/09/14 04:08:18;;;;;;;;;;;;;;;19.23;47.91;99715.25;5093606;28;20297;-77
2023/09/14 04:10:44;;;;;;;;;;;;;;;19.19;48.78;99712.22;5093301;28;19916;-76
2023/09/14 04:13:39;;;;;;;;;;;;;;;19.18;48.69;99715.13;5093421;28;20297;-76
2023/09/14 04:16:05;;;;;;;;;;;;;;;19.13;47.48;99718.50;5058659;28;19912;-77
2023/09/14 04:18:35;;;;;;;;;;;;;;;19.20;48.03;99718.41;5075135;28;19999;-75
2023/09/14 04:21:00;;;;;;;;;;;;;;;19.24;46.49;99724.91;5093206;28;19965;-77
2023/09/14 04:23:26;;;;;;;;;;;;;;;19.20;46.57;99727.25;5093093;28;19912;-77
2023/09/14 04:25:51;;;;;;;;;;;;;;;19.14;47.31;99732.69;5074748;28;19938;-77
2023/09/14 04:28:17;;;;;;;;;;;;;;;19.12;47.25;99734.78;5093065;28;20016;-77
2023/09/14 04:30:44;;;;;;;;;;;;;;;19.12;48.15;99740.13;5092860;28;19927;-76
2023/09/14 04:33:10;;;;;;;;;;;;;;;19.11;48.22;99738.50;5092705;28;20371;-76
2023/09/14 04:35:35;;;;;;;;;;;;;;;19.09;48.77;99736.06;5074459;28;20387;-76
2023/09/14 04:38:01;;;;;;;;;;;;;;;19.04;47.30;99734.06;5074514;28;19919;-77
2023/09/14 04:40:26;;;;;;;;;;;;;;;19.10;47.64;99728.84;5092324;28;19919;-77
2023/09/14 04:42:51;;;;;;;;;;;;;;;19.16;47.36;99733.28;5092635;28;19912;-77
2023/09/14 04:45:16;;;;;;;;;;;;;;;19.19;47.79;99732.81;5092714;28;20365;-77
2023/09/14 04:47:42;;;;;;;;;;;;;;;19.28;47.65;99734.13;5092946;28;19919;-77
2023/09/14 04:50:07;;;;;;;;;;;;;;;19.29;47.61;99733.06;5092656;28;19920;-77
2023/09/14 04:52:32;;;;;;;;;;;;;;;19.32;47.55;99727.25;5092821;28;19943;-77
2023/09/14 04:54:57;;;;;;;;;;;;;;;19.39;47.34;99722.66;5092471;28;19983;-76
2023/09/14 04:57:24;;;;;;;;;;;;;;;19.40;47.59;99716.25;5074322;28;19935;-78
2023/09/14 04:59:50;;;;;;;;;;;;;;;19.41;48.84;99720.56;5092420;28;20385;-76
2023/09/14 05:02:15;;;;;;;;;;;;;;;19.51;47.95;99719.97;5092154;28;19927;-77
2023/09/14 05:04:40;;;;;;;;;;;;;;;19.61;46.87;99726.41;5074186;28;19912;-77
2023/09/14 05:07:05;;;;;;;;;;;;;;;19.72;47.18;99729.34;5092542;28;19914;-77
2023/09/14 05:09:31;;;;;;;;;;;;;;;19.79;47.31;99722.00;5092251;28;19947;-78
2023/09/14 05:11:56;;;;;;;;;;;;;;;19.81;48.21;99720.72;5092137;28;20462;-77
2023/09/14 05:14:21;;;;;;;;;;;;;;;19.92;48.05;99716.38;5092294;28;19912;-75
2023/09/14 05:16:46;;;;;;;;;;;;;;;20.03;48.51;99712.06;5074033;28;19969;-78
2023/09/14 05:19:12;;;;;;;;;;;;;;;20.09;48.21;99714.66;5092150;28;20358;-75
2023/09/14 05:21:37;;;;;;;;;;;;;;;20.19;48.23;99711.38;5092174;28;19919;-74
2023/09/14 05:24:02;;;;;;;;;;;;;;;20.28;48.14;99713.44;5091920;28;19916;-75
2023/09/14 05:26:28;;;;;;;;;;;;;;;20.36;47.76;99709.56;5091828;28;20290;-76
2023/09/14 05:28:53;;;;;;;;;;;;;;;20.43;49.83;99718.31;5091795;28;19912;-76
2023/09/14 05:31:18;;;;;;;;;;;;;;;20.49;48.50;99719.25;5091795;28;20376;-76
2023/09/14 05:33:44;;;;;;;;;;;;;;;20.57;48.59;99717.00;5073715;28;19916;-75
2023/09/14 05:36:10;;;;;;;;;;;;;;;20.67;48.87;99713.69;5091996;28;19912;-76
2023/09/14 05:38:35;;;;;;;;;;;;;;;20.71;49.71;99703.28;5092018;28;19958;-74
2023/09/14 05:41:00;;;;;;;;;;;;;;;20.78;49.61;99703.97;5091843;28;19912;-75
2023/09/14 05:43:25;;;;;;;;;;;;;;;20.86;49.96;99709.78;5073697;28;19915;-75
2023/09/14 05:45:51;;;;;;;;;;;;;;;20.93;49.88;99712.31;5091914;28;19912;-74
2023/09/14 05:48:16;;;;;;;;;;;;;;;20.99;48.52;99705.97;5091849;28;19956;-76
2023/09/14 05:50:41;;;;;;;;;;;;;;;21.06;48.89;99700.47;5091547;28;20343;-77
2023/09/14 05:53:07;;;;;;;;;;;;;;;21.05;49.54;99705.00;5094367;28;19946;-76
2023/09/14 05:55:32;;;;;;;;;;;;;;;21.07;50.00;99702.09;5077758;28;19916;-75
2023/09/14 05:57:57;;;;;;;;;;;;;;;21.12;48.84;99710.22;5095943;28;20449;-74
2023/09/14 06:00:22;;;;;;;;;;;;;;;21.17;49.69;99711.13;5095766;28;19912;-76
2023/09/14 06:02:48;;;;;;;;;;;;;;;21.22;49.51;99718.44;5095642;28;20456;-74
2023/09/14 06:05:13;;;;;;;;;;;;;;;21.29;48.98;99712.94;5077577;28;20013;-76
2023/09/14 06:07:38;;;;;;;;;;;;;;;21.32;48.97;99712.47;5095130;28;19916;-77
2023/09/14 06:10:04;;;;;;;;;;;;;;;21.33;48.79;99717.59;5094550;28;19993;-74
2023/09/14 06:12:29;;;;;;;;;;;;;;;21.34;49.34;99718.41;5073218;28;20282;-75
2023/09/14 06:14:55;;;;;;;;;;;;;;;21.38;49.90;99725.72;5074176;28;20005;-75
2023/09/14 06:17:20;;;;;;;;;;;;;;;21.39;49.70;99731.91;5094792;28;19923;-76
2023/09/14 06:19:45;;;;;;;;;;;;;;;21.41;47.85;99727.94;5094525;28;19916;-74
2023/09/14 06:22:11;;;;;;;;;;;;;;;21.40;49.21;99736.22;5094795;28;20358;-76
2023/09/14 06:24:36;;;;;;;;;;;;;;;21.37;49.23;99739.41;5095122;28;19921;-77
2023/09/14 06:27:02;;;;;;;;;;;;;;;21.40;49.79;99741.59;5095187;28;19918;-76
2023/09/14 06:29:27;;;;;;;;;;;;;;;21.44;48.86;99745.44;5097876;28;19923;-74
2023/09/14 06:31:53;;;;;;;;;;;;;;;21.53;48.96;99752.84;5097439;28;20050;-76
2023/09/14 06:34:18;;;;;;;;;;;;;;;21.62;48.50;99741.72;5095163;28;20444;-76
2023/09/14 06:36:43;;;;;;;;;;;;;;;21.70;48.35;99750.19;5095071;28;19919;-76
2023/09/14 06:39:09;;;;;;;;;;;;;;;21.75;48.33;99736.00;5094150;28;19916;-76
2023/09/14 06:41:34;;;;;;;;;;;;;;;21.83;48.19;99743.66;5094666;28;19954;-76
2023/09/14 06:44:00;;;;;;;;;;;;;;;21.87;46.87;99742.91;5094699;28;20285;-76
2023/09/14 06:46:25;;;;;;;;;;;;;;;21.89;46.34;99743.47;5094695;28;20069;-75
2023/09/14 06:48:50;;;;;;;;;;;;;;;21.94;47.75;99749.97;5072015;28;19916;-75
2023/09/14 06:51:15;;;;;;;;;;;;;;;21.98;46.72;99754.63;5082566;28;20114;-75
2023/09/14 06:53:41;;;;;;;;;;;;;;;22.03;46.20;99752.03;5094154;28;19920;-76
2023/09/14 06:56:10;;;;;;;;;;;;;;;22.10;47.30;99755.34;5094675;28;19912;-76
2023/09/14 06:58:35;;;;;;;;;;;;;;;22.19;47.05;99753.88;5074629;28;19916;-75
2023/09/14 07:01:05;;;;;;;;;;;;;;;22.25;46.58;99753.94;5094340;28;19919;-75
2023/09/14 07:03:31;;;;;;;;;;;;;;;22.37;45.93;99757.34;5092501;28;19916;-75
2023/09/14 07:05:56;;;;;;;;;;;;;;;22.41;46.24;99753.09;5092151;28;19924;-74
2023/09/14 07:08:22;;;;;;;;;;;;;;;22.47;46.30;99750.22;5094241;28;19942;-74
2023/09/14 07:10:47;;;;;;;;;;;;;;;22.60;45.81;99756.28;5093951;28;20011;-76
2023/09/14 07:13:14;;;;;;;;;;;;;;;22.71;45.46;99763.41;5093183;28;19916;-74
2023/09/14 07:15:39;;;;;;;;;;;;;;;22.76;45.20;99753.50;5088369;28;20419;-77
2023/09/14 07:18:04;;;;;;;;;;;;;;;22.78;45.37;99754.06;5091340;28;19920;-75
2023/09/14 07:20:30;;;;;;;;;;;;;;;22.80;45.20;99754.66;5073735;28;20358;-75
2023/09/14 07:22:55;;;;;;;;;;;;;;;22.89;45.36;99759.59;5079376;28;19951;-77
2023/09/14 07:25:20;;;;;;;;;;;;;;;22.90;45.14;99753.94;5074371;28;19919;-76
2023/09/14 07:27:45;;;;;;;;;;;;;;;22.98;44.41;99755.38;5073283;28;20412;-77
2023/09/14 07:30:13;;;;;;;;;;;;;;;23.08;44.29;99750.94;5071451;28;19927;-76
2023/09/14 07:32:39;;;;;;;;;;;;;;;23.16;44.64;99749.66;5090763;28;20045;-76
2023/09/14 07:35:05;;;;;;;;;;;;;;;23.27;43.59;99751.38;5073314;28;19917;-76
2023/09/14 07:37:30;;;;;;;;;;;;;;;23.31;44.05;99749.78;5090571;28;21120;-77
2023/09/14 07:39:56;;;;;;;;;;;;;;;23.36;43.83;99752.53;5090958;28;20344;-77
2023/09/14 07:42:21;;;;;;;;;;;;;;;23.40;44.07;99745.56;5092235;28;19926;-76
2023/09/14 07:44:46;;;;;;;;;;;;;;;23.46;44.83;99749.91;5071888;28;20316;-75
2023/09/14 07:47:12;;;;;;;;;;;;;;;23.56;44.25;99746.53;5056423;28;20008;-76
2023/09/14 07:49:37;;;;;;;;;;;;;;;23.67;43.99;99748.22;5054985;28;19912;-76
2023/09/14 07:52:02;;;;;;;;;;;;;;;23.72;43.44;99734.78;5071208;28;19927;-76
2023/09/14 07:54:27;;;;;;;;;;;;;;;23.84;43.51;99739.19;5070002;28;19916;-74
2023/09/14 07:56:53;;;;;;;;;;;;;;;23.95;43.00;99739.00;5069148;28;19923;-77
2023/09/14 07:59:18;;;;;;;;;;;;;;;24.01;42.85;99737.13;5069717;28;19933;-75
2023/09/14 08:01:43;;;;;;;;;;;;;;;24.03;43.44;99732.28;5074043;28;19928;-75
2023/09/14 08:04:09;;;;;;;;;;;;;;;24.13;42.90;99739.63;5092810;28;19916;-75
2023/09/14 08:06:34;;;;;;;;;;;;;;;24.26;43.02;99729.16;5089393;28;19924;-75
2023/09/14 08:08:59;;;;;;;;;;;;;;;24.33;42.73;99724.38;5086372;28;19916;-75
2023/09/14 08:11:27;;;;;;;;;;;;;;;24.49;42.17;99722.53;5093113;28;19992;-76
2023/09/14 08:13:52;;;;;;;;;;;;;;;24.65;42.52;99721.53;5084524;28;19923;-76
2023/09/14 08:16:18;;;;;;;;;;;;;;;24.76;41.85;99725.06;5091411;28;20315;-74
2023/09/14 08:18:43;;;;;;;;;;;;;;;24.87;42.02;99725.91;5088676;28;20329;-76
2023/09/14 08:21:09;;;;;;;;;;;;;;;24.94;41.25;99723.75;5072561;28;19916;-76
2023/09/14 08:23:35;;;;;;;;;;;;;;;24.97;41.37;99720.50;5090762;28;19923;-76
2023/09/14 08:26:03;;;;;;;;;;;;;;;25.04;41.24;99715.69;5087768;28;19915;-77
2023/09/14 08:28:28;;;;;;;;;;;;;;;25.16;41.12;99718.13;5088534;28;20403;-76
2023/09/14 08:30:54;;;;;;;;;;;;;;;25.21;40.81;99710.03;5086525;28;19920;-76
2023/09/14 08:33:20;;;;;;;;;;;;;;;25.31;40.50;99710.88;5091942;28;20269;-77
2023/09/14 08:35:45;;;;;;;;;;;;;;;25.44;40.11;99708.69;5089578;28;20396;-76
2023/09/14 08:38:11;;;;;;;;;;;;;;;25.53;40.43;99713.28;5091514;28;19973;-77
2023/09/14 08:40:36;;;;;;;;;;;;;;;25.68;40.00;99706.25;5088273;28;19916;-76
2023/09/14 08:43:02;;;;;;;;;;;;;;;25.83;39.50;99701.63;5069262;28;19928;-76
2023/09/14 08:45:31;;;;;;;;;;;;;;;26.01;39.93;99705.66;5072654;28;19916;-76
2023/09/14 08:47:57;;;;;;;;;;;;;;;26.18;38.35;99698.03;5089260;28;19924;-74
2023/09/14 08:50:23;;;;;;;;;;;;;;;26.37;38.86;99681.19;5063779;28;19974;-74
2023/09/14 08:52:49;;;;;;;;;;;;;;;26.56;38.60;99682.16;5087938;28;20446;-74
2023/09/14 08:55:15;;;;;;;;;;;;;;;26.66;38.64;99681.31;5088155;28;19924;-74
2023/09/14 08:57:43;;;;;;;;;;;;;;;26.83;38.46;99685.28;5091168;28;19952;-75
2023/09/14 09:00:15;;;;;;;;;;;;;;;26.95;37.80;99679.50;5091049;28;19923;-76
2023/09/14 09:02:51;;;;;;;;;;;;;;;27.08;37.93;99675.38;5090272;28;20324;-75
2023/09/14 09:05:17;;;;;;;;;;;;;;;27.26;38.13;99677.38;5091034;28;20401;-75
2023/09/14 09:07:43;;;;;;;;;;;;;;;27.35;37.64;99669.44;5070693;28;19962;-76
2023/09/14 09:10:12;;;;;;;;;;;;;;;27.53;36.83;99674.16;5088836;28;19935;-76
2023/09/14 09:12:37;;;;;;;;;;;;;;;27.70;36.10;99657.47;5061541;28;20404;-76
2023/09/14 09:15:03;;;;;;;;;;;;;;;27.77;35.95;99666.91;5088396;28;19927;-75
2023/09/14 09:17:36;;;;;;;;;;;;;;;27.83;35.03;99667.66;5090467;28;19986;-75
2023/09/14 09:20:10;;;;;;;;;;;;;;;27.94;35.65;99663.72;5071710;28;19916;-75
2023/09/14 09:22:38;;;;;;;;;;;;;;;28.03;36.03;99661.16;5073820;28;19912;-74
2023/09/14 09:25:04;;;;;;;;;;;;;;;28.17;35.92;99662.06;5068300;28;19916;-76
2023/09/14 09:27:29;;;;;;;;;;;;;;;28.35;35.70;99655.91;5091452;28;20324;-74
2023/09/14 09:29:58;;;;;;;;;;;;;;;28.50;35.55;99660.31;5075428;28;20416;-74
2023/09/14 09:32:23;;;;;;;;;;;;;;;28.62;35.20;99659.88;5091380;28;20353;-75
2023/09/14 09:34:49;;;;;;;;;;;;;;;28.68;35.21;99650.56;5087939;28;20022;-75
2023/09/14 09:37:14;;;;;;;;;;;;;;;28.64;35.22;99646.81;5069823;28;19978;-77
2023/09/14 09:39:40;;;;;;;;;;;;;;;28.69;35.09;99649.47;5089700;28;19991;-73
2023/09/14 09:42:08;;;;;;;;;;;;;;;28.67;35.34;99644.31;5087445;28;20011;-76
2023/09/14 09:44:34;;;;;;;;;;;;;;;28.72;34.54;99630.66;5068813;28;19917;-76
2023/09/14 09:46:59;;;;;;;;;;;;;;;28.76;34.78;99636.31;5076694;28;19938;-75
2023/09/14 09:49:27;;;;;;;;;;;;;;;28.83;34.69;99636.72;5091241;28;20377;-76
2023/09/14 09:51:53;;;;;;;;;;;;;;;28.89;34.66;99627.44;5092162;28;19920;-76
2023/09/14 09:54:18;;;;;;;;;;;;;;;29.05;34.39;99628.81;5088559;28;20400;-75
2023/09/14 09:56:44;;;;;;;;;;;;;;;29.17;34.17;99631.06;5088439;28;19955;-76
2023/09/14 09:59:10;;;;;;;;;;;;;;;29.24;34.26;99626.03;5063226;28;20302;-75
2023/09/14 10:01:45;;;;;;;;;;;;;;;29.32;34.12;99621.81;5084709;28;19951;-75
2023/09/14 10:04:11;;;;;;;;;;;;;;;29.45;34.33;99612.91;5090075;28;19916;-77
2023/09/14 10:06:37;;;;;;;;;;;;;;;29.67;34.29;99612.19;5090239;28;20317;-75
2023/09/14 10:09:06;;;;;;;;;;;;;;;29.88;33.34;99599.00;5091473;28;19912;-76
2023/09/14 10:11:32;;;;;;;;;;;;;;;30.12;33.35;99606.97;5090844;28;20022;-76
2023/09/14 10:14:00;;;;;;;;;;;;;;;30.33;33.99;99598.03;5089301;28;19916;-76
2023/09/14 10:16:25;;;;;;;;;;;;;;;30.33;33.35;99592.59;5090810;28;19920;-76
2023/09/14 10:18:54;;;;;;;;;;;;;;;30.30;32.41;99590.47;5073116;28;19961;-76
2023/09/14 10:21:20;;;;;;;;;;;;;;;30.42;31.65;99583.69;5091240;28;20018;-76
2023/09/14 10:23:45;;;;;;;;;;;;;;;30.43;32.21;99580.66;5068617;28;19916;-75
2023/09/14 10:26:11;;;;;;;;;;;;;;;30.47;31.57;99575.38;5087512;28;19922;-75
2023/09/14 10:28:37;;;;;;;;;;;;;;;30.63;30.91;99579.41;5090321;28;20384;-76
2023/09/14 10:31:03;;;;;;;;;;;;;;;30.91;31.31;99583.63;5088501;28;19970;-76
2023/09/14 10:33:28;;;;;;;;;;;;;;;31.21;31.33;99575.78;5089994;28;19912;-76
2023/09/14 10:35:55;;;;;;;;;;;;;;;31.54;31.37;99568.88;5090595;28;19935;-75
2023/09/14 10:38:23;;;;;;;;;;;;;;;31.84;31.61;99578.16;5056101;28;19951;-76
2023/09/14 10:40:49;;;;;;;;;;;;;;;32.09;30.30;99582.06;5074474;28;19916;-76
2023/09/14 10:43:14;;;;;;;;;;;;;;;32.18;30.11;99571.94;5086430;28;19920;-75
2023/09/14 10:45:43;;;;;;;;;;;;;;;32.30;30.48;99567.81;5094863;28;20377;-77
2023/09/14 10:48:12;;;;;;;;;;;;;;;32.50;29.93;99562.50;5095159;28;19916;-77
2023/09/14 10:50:37;;;;;;;;;;;;;;;32.72;28.87;99561.53;5076336;28;20396;-76
2023/09/14 10:53:03;;;;;;;;;;;;;;;32.82;29.67;99558.47;5094466;28;19912;-76
2023/09/14 10:55:28;;;;;;;;;;;;;;;32.72;28.60;99520.50;5094619;28;19931;-77
2023/09/14 10:57:53;;;;;;;;;;;;;;;33.10;27.76;99558.88;5094482;28;19905;-75
2023/09/14 11:00:31;;;;;;;;;;;;;;;33.15;27.56;99550.50;5095062;28;19912;-76
2023/09/14 11:02:56;;;;;;;;;;;;;;;33.27;28.09;99549.81;5072874;28;19924;-75
2023/09/14 11:05:23;;;;;;;;;;;;;;;33.42;28.84;99549.28;5074629;28;19923;-75
2023/09/14 11:07:59;;;;;;;;;;;;;;;33.58;27.61;99541.31;5081363;28;19923;-74
2023/09/14 11:10:26;;;;;;;;;;;;;;;33.67;28.37;99547.56;5066627;28;19920;-75
2023/09/14 11:12:51;;;;;;;;;;;;;;;33.83;29.09;99547.81;5065727;28;19994;-78
2023/09/14 11:15:20;;;;;;;;;;;;;;;33.97;28.12;99533.84;5093604;28;19959;-76
2023/09/14 11:17:47;;;;;;;;;;;;;;;34.01;28.56;99541.06;5094107;28;20381;-75
2023/09/14 11:20:19;;;;;;;;;;;;;;;34.08;27.11;99535.84;5092678;28;19924;-76
2023/09/14 11:22:44;;;;;;;;;;;;;;;34.03;26.75;99536.06;5093214;28;19923;-76
2023/09/14 11:25:10;;;;;;;;;;;;;;;34.13;27.24;99528.56;5094047;28;20395;-76
2023/09/14 11:27:35;;;;;;;;;;;;;;;34.15;26.99;99529.84;5093353;28;20422;-76
2023/09/14 11:30:11;;;;;;;;;;;;;;;34.20;27.39;99523.38;5092867;28;20006;-76
2023/09/14 11:32:37;;;;;;;;;;;;;;;34.28;27.62;99519.75;5075833;28;19919;-76
2023/09/14 11:35:02;;;;;;;;;;;;;;;34.35;26.89;99520.06;5076100;28;20333;-77
2023/09/14 11:37:28;;;;;;;;;;;;;;;34.33;24.93;99514.09;5068417;28;20003;-77
2023/09/14 11:39:55;;;;;;;;;;;;;;;34.32;26.27;99513.31;5073759;28;20401;-77
2023/09/14 11:42:20;;;;;;;;;;;;;;;34.27;26.68;99518.16;5055601;28;19912;-77
2023/09/14 11:44:49;;;;;;;;;;;;;;;34.33;26.85;99516.84;5072885;28;19927;-76
2023/09/14 11:47:15;;;;;;;;;;;;;;;34.36;27.04;99508.75;5083924;28;19916;-75
2023/09/14 11:49:41;;;;;;;;;;;;;;;34.37;25.58;99501.31;5074527;28;20355;-77
2023/09/14 11:52:07;;;;;;;;;;;;;;;34.20;27.28;99506.94;5093691;28;20011;-77
2023/09/14 11:54:35;;;;;;;;;;;;;;;34.11;25.97;99504.25;5093005;28;19916;-76
2023/09/14 11:57:03;;;;;;;;;;;;;;;33.98;26.12;99489.69;5093812;28;19916;-77
2023/09/14 11:59:32;;;;;;;;;;;;;;;33.72;27.00;99492.59;5093748;28;19912;-77
2023/09/14 12:01:58;;;;;;;;;;;;;;;33.44;27.19;99491.47;5093291;28;19920;-77
2023/09/14 12:04:27;;;;;;;;;;;;;;;33.17;26.87;99492.69;5091620;28;19922;-77
2023/09/14 12:06:54;;;;;;;;;;;;;;;33.02;27.47;99496.78;5093293;28;19912;-77
2023/09/14 12:09:32;;;;;;;;;;;;;;;32.89;28.37;99495.06;5075165;28;19970;-77
2023/09/14 12:11:58;;;;;;;;;;;;;;;32.89;28.39;99483.34;5093409;28;20390;-76
2023/09/14 12:14:35;;;;;;;;;;;;;;;32.82;26.85;99479.16;5091617;28;21479;-76
2023/09/14 12:17:00;;;;;;;;;;;;;;;32.73;27.49;99469.38;5093110;28;20033;-77
2023/09/14 12:19:25;;;;;;;;;;;;;;;32.67;28.05;99479.63;5091954;28;19912;-78
2023/09/14 12:21:50;;;;;;;;;;;;;;;32.58;28.81;99472.59;5092510;28;20281;-75
2023/09/14 12:24:16;;;;;;;;;;;;;;;32.44;28.83;99473.59;5092871;28;19912;-77
2023/09/14 12:26:41;;;;;;;;;;;;;;;32.42;28.80;99477.78;5074708;28;19948;-77
2023/09/14 12:29:07;;;;;;;;;;;;;;;32.44;27.64;99472.78;5094403;28;19969;-75
2023/09/14 12:31:37;;;;;;;;;;;;;;;32.47;27.80;99470.22;5096504;28;19955;-75
2023/09/14 12:34:03;;;;;;;;;;;;;;;32.49;28.16;99462.47;5093141;28;20392;-77
2023/09/14 12:36:29;;;;;;;;;;;;;;;32.46;27.97;99467.81;5092729;28;19912;-77
2023/09/14 12:38:55;;;;;;;;;;;;;;;32.35;27.95;99456.41;5074381;28;19995;-77
2023/09/14 12:41:21;;;;;;;;;;;;;;;32.29;28.23;99454.97;5072635;28;19999;-77